Home > Products > Valid Products > TAF

000
FTUS42 KMHX 231120
TAFEWN
TAF
KEWN 231120Z 2312/2412 00000KT P6SM SKC
     FM231300 05007KT P6SM SCT050
     FM240000 10004KT P6SM SKC=



000
FTUS42 KMHX 230528 AAA
TAFEWN
TAF AMD
KEWN 230528Z 2305/2406 00000KT 4SM BR SCT002
      TEMPO 2306/2309 1SM BR VV002
     FM231300 03007KT P6SM SCT050
     FM240000 09005KT P6SM SKC=



000
FTUS42 KMHX 230528 AAA
TAFEWN
TAF AMD
KEWN 230528Z 2305/2406 00000KT 4SM BR SCT002
      TEMPO 2306/2309 1SM BR VV002
     FM231300 03007KT P6SM SCT050
     FM240000 09005KT P6SM SKC=



000
FTUS42 KMHX 230520
TAFEWN
TAF
KEWN 230520Z 2306/2406 00000KT P6SM SKC
     FM231300 03007KT P6SM SCT050
     FM240000 09005KT P6SM SKC=



000
FTUS42 KMHX 230520
TAFEWN
TAF
KEWN 230520Z 2306/2406 00000KT P6SM SKC
     FM231300 03007KT P6SM SCT050
     FM240000 09005KT P6SM SKC=



000
FTUS42 KMHX 222326
TAFEWN
TAF
KEWN 222326Z 2300/2324 00000KT P6SM SKC
     FM231300 03007KT P6SM SKC=



000
FTUS42 KMHX 222326
TAFEWN
TAF
KEWN 222326Z 2300/2324 00000KT P6SM SKC
     FM231300 03007KT P6SM SKC=



000
FTUS42 KMHX 221721
TAFEWN
TAF
KEWN 221721Z 2218/2318 36006KT P6SM SCT040
     FM230000 VRB02KT P6SM SKC
     FM231300 02007KT P6SM SKC=



000
FTUS42 KMHX 221721
TAFEWN
TAF
KEWN 221721Z 2218/2318 36006KT P6SM SCT040
     FM230000 VRB02KT P6SM SKC
     FM231300 02007KT P6SM SKC=



000
FTUS42 KMHX 221322 AAA
TAFEWN
TAF AMD
KEWN 221322Z 2213/2312 35006KT P6SM BKN025 OVC090
     FM221500 36009KT P6SM SCT030
     FM230000 VRB02KT P6SM SKC=



000
FTUS42 KMHX 221120
TAFEWN
TAF
KEWN 221120Z 2212/2312 36010KT P6SM SCT012 BKN070
      TEMPO 2212/2214 BKN012
     FM221400 36009KT P6SM SCT030
     FM230000 VRB02KT P6SM SKC=



000
FTUS42 KMHX 221120
TAFEWN
TAF
KEWN 221120Z 2212/2312 36010KT P6SM SCT012 BKN070
      TEMPO 2212/2214 BKN012
     FM221400 36009KT P6SM SCT030
     FM230000 VRB02KT P6SM SKC=



000
FTUS42 KMHX 220619 AAA
TAFEWN
TAF AMD
KEWN 220619Z 2206/2306 35010KT P6SM VCSH SCT008 OVC015
      TEMPO 2206/2208 OVC008
     FM221200 36010KT P6SM SCT030=



000
FTUS42 KMHX 220619 AAA
TAFEWN
TAF AMD
KEWN 220619Z 2206/2306 35010KT P6SM VCSH SCT008 OVC015
      TEMPO 2206/2208 OVC008
     FM221200 36010KT P6SM SCT030=



000
FTUS42 KMHX 220534
TAFEWN
TAF
KEWN 220534Z 2206/2306 35008KT P6SM SCT008 OVC015
      TEMPO 2206/2208 OVC008
     FM221200 36010KT P6SM SCT030=



000
FTUS42 KMHX 220534
TAFEWN
TAF
KEWN 220534Z 2206/2306 35008KT P6SM SCT008 OVC015
      TEMPO 2206/2208 OVC008
     FM221200 36010KT P6SM SCT030=



000
FTUS42 KMHX 220112 AAA
TAFEWN
TAF AMD
KEWN 220112Z 2201/2224 34010KT P6SM SCT015
     FM220300 36008KT P6SM SCT008 BKN015
      TEMPO 2206/2208 BKN008
     FM221000 36010KT P6SM SCT030=



000
FTUS42 KMHX 212342 CCA
TAFEWN
TAF COR
KEWN 212342Z 2200/2224 35012KT P6SM VCSH SCT008 OVC015
      TEMPO 2200/2201 BKN008
     FM220400 36008KT P6SM OVC007
     FM221000 36008KT P6SM SCT030=



000
FTUS42 KMHX 212327
TAFEWN
TAF
KEWN 212327Z 2200/2224 35010KT P6SM VCSH SCT008 OVC015
     FM220400 36008KT P6SM OVC007
     FM221000 36008KT P6SM SCT030=



000
FTUS42 KMHX 212327
TAFEWN
TAF
KEWN 212327Z 2200/2224 35010KT P6SM VCSH SCT008 OVC015
     FM220400 36008KT P6SM OVC007
     FM221000 36008KT P6SM SCT030=



000
FTUS42 KMHX 211739
TAFEWN
TAF
KEWN 211739Z 2118/2218 17010G17KT P6SM VCTS SCT025 BKN030CB
     FM212100 22009KT P6SM VCTS SCT015 BKN025CB
      TEMPO 2122/2124 5SM TSRA BR BKN015CB
     FM220200 36006KT P6SM OVC012
     FM220600 36006KT P6SM SCT007
     FM221400 36010KT P6SM SCT030=



000
FTUS42 KMHX 211412 AAA
TAFEWN
TAF AMD
KEWN 211412Z 2114/2212 13010KT P6SM VCSH BKN015 OVC050
     FM211700 22012G18KT 5SM SHRA VCTS BKN025CB
     FM212200 35009KT P6SM VCSH OVC025
     FM220200 33006KT P6SM OVC012=



000
FTUS42 KMHX 211140
TAFEWN
TAF
KEWN 211140Z 2112/2212 13010KT P6SM VCSH SCT035 BKN050
     FM211800 22012G18KT 5SM SHRA VCTS BKN025CB
     FM212200 35009KT P6SM VCSH OVC025
     FM220200 33006KT P6SM OVC012=



000
FTUS42 KMHX 210535
TAFEWN
TAF
KEWN 210535Z 2106/2206 09004KT P6SM BKN025
     FM211400 13010KT P6SM VCTS SCT025 BKN050CB
     FM211900 32012KT 5SM SHRA VCTS BKN025CB
     FM212300 34009KT P6SM OVC015=



000
FTUS42 KMHX 202329
TAFEWN
TAF
KEWN 202329Z 2100/2124 08006KT P6SM FEW040 SCT100
     FM210700 05005KT P6SM BKN025
     FM211400 13010KT P6SM VCTS SCT025 BKN050CB
     FM211900 32012KT 5SM SHRA VCTS BKN025CB=



000
FTUS42 KMHX 202329
TAFEWN
TAF
KEWN 202329Z 2100/2124 08006KT P6SM FEW040 SCT100
     FM210700 05005KT P6SM BKN025
     FM211400 13010KT P6SM VCTS SCT025 BKN050CB
     FM211900 32012KT 5SM SHRA VCTS BKN025CB=



000
FTUS42 KMHX 201720
TAFEWN
TAF
KEWN 201720Z 2018/2118 05009KT P6SM SCT035
     FM210600 05005KT P6SM SCT015 OVC025
     FM211400 12010G17KT P6SM VCTS SCT025 BKN050CB=



000
FTUS42 KMHX 201720
TAFEWN
TAF
KEWN 201720Z 2018/2118 05009KT P6SM SCT035
     FM210600 05005KT P6SM SCT015 OVC025
     FM211400 12010G17KT P6SM VCTS SCT025 BKN050CB=



    US Dept of Commerce
    National Oceanic and Atmospheric Administration
    National Weather Service
    1325 East West Highway
    Silver Spring, MD 20910
    Page Author: NWS Internet Services Team
Disclaimer
Information Quality
Credits
Glossary
Privacy Policy
Freedom of Information Act (FOIA)
About Us
Career Opportunities